GTI990 ULLI-EIKN
Flight info
| Callsign | GTI990 |
|---|---|
| Flight time | 3h 5m |
| Altitude | 32000 |
| Route | TURAL DCT RESMO DCT NEBSI DCT NILUG DCT VEMAS DCT DANKO DCT VAXIT DCT REKNA DCT GOMOT DCT HAVEN DCT BLACA DCT BELZU DCT ERNAN DCT CON |
| Aircraft | B77L/H-SDE1E3FGHIJ3J4J5M1P2RWXYZ/LB1D1 |
Departure
| Time | 2026-04-09 19:40 |
|---|---|
| Airport | Pulkovo Airport (ULLI) |
Arrival
| Time | 2026-04-09 22:45 |
|---|---|
| Airport | Ireland West Airport Knock (EIKN) |
| Time | Latitude | Longitude | Altitude | Speed | Heading |
|---|---|---|---|---|---|
| 2026-04-09 19:13 | 59.79647 | 30.26583 | 94 ft | 0 kts | 106° |
| 2026-04-09 19:29 | 59.79647 | 30.26582 | 94 ft | 0 kts | 106° |
| 2026-04-09 19:29 | 59.79651 | 30.26558 | 94 ft | 3 kts | 106° |
| 2026-04-09 19:29 | 59.79659 | 30.26507 | 94 ft | 3 kts | 107° |
| 2026-04-09 19:30 | 59.79664 | 30.26457 | 94 ft | 3 kts | 93° |
| 2026-04-09 19:30 | 59.79661 | 30.26414 | 94 ft | 2 kts | 61° |
| 2026-04-09 19:30 | 59.79647 | 30.26386 | 94 ft | 3 kts | 26° |
| 2026-04-09 19:30 | 59.79625 | 30.26371 | 94 ft | 2 kts | 10° |
| 2026-04-09 19:31 | 59.79621 | 30.26370 | 94 ft | 0 kts | 9° |
| 2026-04-09 19:32 | 59.79629 | 30.26373 | 94 ft | 4 kts | 12° |
| 2026-04-09 19:33 | 59.79692 | 30.26407 | 94 ft | 11 kts | 15° |
| 2026-04-09 19:33 | 59.79775 | 30.26454 | 94 ft | 13 kts | 16° |
| 2026-04-09 19:33 | 59.79874 | 30.26512 | 94 ft | 14 kts | 16° |
| 2026-04-09 19:33 | 59.79967 | 30.26567 | 94 ft | 11 kts | 16° |
| 2026-04-09 19:34 | 59.80038 | 30.26608 | 94 ft | 10 kts | 16° |
| 2026-04-09 19:34 | 59.80102 | 30.26646 | 94 ft | 8 kts | 16° |
| 2026-04-09 19:34 | 59.80157 | 30.26679 | 94 ft | 7 kts | 17° |
| 2026-04-09 19:34 | 59.80215 | 30.26713 | 94 ft | 11 kts | 17° |
| 2026-04-09 19:35 | 59.80307 | 30.26765 | 94 ft | 15 kts | 16° |
| 2026-04-09 19:35 | 59.80395 | 30.26774 | 94 ft | 11 kts | 321° |
| 2026-04-09 19:35 | 59.80435 | 30.26608 | 94 ft | 17 kts | 286° |
| 2026-04-09 19:35 | 59.80476 | 30.26335 | 94 ft | 21 kts | 284° |
| 2026-04-09 19:36 | 59.80517 | 30.26064 | 94 ft | 19 kts | 287° |
| 2026-04-09 19:36 | 59.80552 | 30.25826 | 94 ft | 17 kts | 286° |
| 2026-04-09 19:36 | 59.80584 | 30.25610 | 94 ft | 15 kts | 287° |
| 2026-04-09 19:36 | 59.80613 | 30.25420 | 94 ft | 13 kts | 287° |
| 2026-04-09 19:37 | 59.80641 | 30.25232 | 94 ft | 14 kts | 287° |
| 2026-04-09 19:37 | 59.80670 | 30.25042 | 94 ft | 13 kts | 286° |
| 2026-04-09 19:37 | 59.80697 | 30.24867 | 94 ft | 12 kts | 287° |
| 2026-04-09 19:37 | 59.80719 | 30.24713 | 94 ft | 9 kts | 286° |
| 2026-04-09 19:38 | 59.80750 | 30.24628 | 94 ft | 6 kts | 326° |
| 2026-04-09 19:38 | 59.80785 | 30.24604 | 94 ft | 3 kts | 345° |
| 2026-04-09 19:38 | 59.80792 | 30.24600 | 94 ft | 0 kts | 345° |
| 2026-04-09 19:38 | 59.80796 | 30.24597 | 94 ft | 1 kts | 345° |
| 2026-04-09 19:39 | 59.80813 | 30.24589 | 94 ft | 3 kts | 345° |
| 2026-04-09 19:39 | 59.80857 | 30.24568 | 94 ft | 9 kts | 349° |
| 2026-04-09 19:39 | 59.80927 | 30.24551 | 94 ft | 9 kts | 6° |
| 2026-04-09 19:39 | 59.80960 | 30.24627 | 94 ft | 6 kts | 100° |
| 2026-04-09 19:40 | 59.80939 | 30.24770 | 94 ft | 23 kts | 105° |
| 2026-04-09 19:40 | 59.80801 | 30.25691 | 94 ft | 114 kts | 107° |
| 2026-04-09 19:40 | 59.80493 | 30.27733 | 168 ft | 186 kts | 104° |
| 2026-04-09 19:40 | 59.80141 | 30.30110 | 1426 ft | 179 kts | 103° |
| 2026-04-09 19:41 | 59.79844 | 30.32115 | 2676 ft | 146 kts | 102° |
| 2026-04-09 19:41 | 59.79571 | 30.33971 | 3288 ft | 139 kts | 102° |
| 2026-04-09 19:41 | 59.79282 | 30.35926 | 3520 ft | 156 kts | 103° |
| 2026-04-09 19:41 | 59.78960 | 30.38083 | 3821 ft | 173 kts | 103° |
| 2026-04-09 19:42 | 59.78590 | 30.40559 | 3923 ft | 203 kts | 103° |
| 2026-04-09 19:42 | 59.78175 | 30.43317 | 4515 ft | 212 kts | 103° |
| 2026-04-09 19:42 | 59.77742 | 30.46194 | 5196 ft | 219 kts | 103° |
| 2026-04-09 19:42 | 59.77307 | 30.49089 | 5940 ft | 221 kts | 102° |
| 2026-04-09 19:43 | 59.77122 | 30.52117 | 6596 ft | 222 kts | 82° |
| 2026-04-09 19:43 | 59.77492 | 30.55071 | 7264 ft | 223 kts | 63° |
| 2026-04-09 19:43 | 59.78375 | 30.57587 | 7917 ft | 226 kts | 44° |
| 2026-04-09 19:43 | 59.79698 | 30.59351 | 8583 ft | 233 kts | 24° |
| 2026-04-09 19:44 | 59.81264 | 30.60241 | 9236 ft | 239 kts | 14° |
| 2026-04-09 19:44 | 59.82923 | 30.60402 | 9832 ft | 247 kts | 354° |
| 2026-04-09 19:44 | 59.84591 | 30.59216 | 10285 ft | 269 kts | 328° |
| 2026-04-09 19:44 | 59.85890 | 30.56341 | 10717 ft | 299 kts | 297° |
| 2026-04-09 19:45 | 59.86322 | 30.52160 | 11171 ft | 326 kts | 266° |
| 2026-04-09 19:45 | 59.85825 | 30.47589 | 11769 ft | 346 kts | 253° |
| 2026-04-09 19:45 | 59.85088 | 30.42879 | 12539 ft | 362 kts | 253° |
| 2026-04-09 19:45 | 59.84308 | 30.38025 | 13309 ft | 377 kts | 253° |
| 2026-04-09 19:46 | 59.83492 | 30.32963 | 14061 ft | 392 kts | 252° |
| 2026-04-09 19:46 | 59.82652 | 30.27768 | 14868 ft | 403 kts | 252° |
| 2026-04-09 19:46 | 59.81790 | 30.22463 | 15816 ft | 410 kts | 252° |
| 2026-04-09 19:46 | 59.80904 | 30.17019 | 16704 ft | 418 kts | 252° |
| 2026-04-09 19:47 | 59.80005 | 30.11516 | 17614 ft | 423 kts | 252° |
| 2026-04-09 19:47 | 59.79086 | 30.05906 | 18510 ft | 428 kts | 252° |
| 2026-04-09 19:47 | 59.78150 | 30.00212 | 19281 ft | 435 kts | 252° |
| 2026-04-09 19:47 | 59.77202 | 29.94466 | 20005 ft | 442 kts | 252° |
| 2026-04-09 19:48 | 59.76244 | 29.88675 | 20692 ft | 447 kts | 252° |
| 2026-04-09 19:48 | 59.75262 | 29.82756 | 21332 ft | 454 kts | 252° |
| 2026-04-09 19:48 | 59.74270 | 29.76801 | 22005 ft | 459 kts | 252° |
| 2026-04-09 19:48 | 59.73259 | 29.70752 | 22578 ft | 464 kts | 252° |
| 2026-04-09 19:49 | 59.72226 | 29.64592 | 23166 ft | 469 kts | 252° |
| 2026-04-09 19:49 | 59.71196 | 29.58467 | 23725 ft | 473 kts | 251° |
| 2026-04-09 19:49 | 59.70152 | 29.52284 | 24247 ft | 477 kts | 251° |
| 2026-04-09 19:49 | 59.69079 | 29.45950 | 24813 ft | 481 kts | 251° |
| 2026-04-09 19:50 | 59.68000 | 29.39602 | 25272 ft | 485 kts | 251° |
| 2026-04-09 19:50 | 59.66909 | 29.33207 | 25732 ft | 490 kts | 250° |
| 2026-04-09 19:50 | 59.65866 | 29.27111 | 26187 ft | 494 kts | 251° |
| 2026-04-09 19:50 | 59.64753 | 29.20633 | 26635 ft | 497 kts | 250° |
| 2026-04-09 19:51 | 59.63617 | 29.14040 | 27048 ft | 502 kts | 250° |
| 2026-04-09 19:51 | 59.62491 | 29.07536 | 27449 ft | 507 kts | 250° |
| 2026-04-09 19:51 | 59.61351 | 29.00966 | 27982 ft | 509 kts | 250° |
| 2026-04-09 19:51 | 59.60186 | 28.94277 | 28439 ft | 512 kts | 250° |
| 2026-04-09 19:52 | 59.59021 | 28.87618 | 28785 ft | 517 kts | 250° |
| 2026-04-09 19:52 | 59.57848 | 28.80934 | 29219 ft | 521 kts | 250° |
| 2026-04-09 19:52 | 59.56657 | 28.74172 | 29567 ft | 524 kts | 250° |
| 2026-04-09 19:52 | 59.55442 | 28.67297 | 30106 ft | 525 kts | 250° |
| 2026-04-09 19:53 | 59.54254 | 28.60600 | 30718 ft | 523 kts | 250° |
| 2026-04-09 19:53 | 59.53040 | 28.53780 | 31306 ft | 522 kts | 250° |
| 2026-04-09 19:53 | 59.51836 | 28.47041 | 31799 ft | 522 kts | 250° |
| 2026-04-09 19:53 | 59.50625 | 28.40285 | 32223 ft | 523 kts | 250° |
| 2026-04-09 19:54 | 59.49395 | 28.33454 | 32394 ft | 529 kts | 249° |
| 2026-04-09 19:54 | 59.46899 | 28.19663 | 32386 ft | 543 kts | 249° |
| 2026-04-09 19:55 | 59.44500 | 28.05397 | 32410 ft | 557 kts | 257° |
| 2026-04-09 19:55 | 59.43477 | 27.90180 | 32400 ft | 560 kts | 265° |
| 2026-04-09 19:56 | 59.42728 | 27.74963 | 32396 ft | 561 kts | 265° |
| 2026-04-09 19:56 | 59.41964 | 27.59762 | 32417 ft | 560 kts | 265° |
| 2026-04-09 19:57 | 59.41179 | 27.44518 | 32395 ft | 561 kts | 265° |
| 2026-04-09 19:57 | 59.40375 | 27.29247 | 32386 ft | 562 kts | 264° |
| 2026-04-09 19:58 | 59.39138 | 27.06398 | 32400 ft | 563 kts | 264° |
| 2026-04-09 19:58 | 59.38288 | 26.91122 | 32423 ft | 560 kts | 264° |
| 2026-04-09 19:59 | 59.37423 | 26.75896 | 32411 ft | 563 kts | 264° |
| 2026-04-09 19:59 | 59.36542 | 26.60720 | 32387 ft | 564 kts | 264° |
| 2026-04-09 20:00 | 59.35633 | 26.45369 | 32404 ft | 563 kts | 264° |
| 2026-04-09 20:00 | 59.34716 | 26.30191 | 32384 ft | 563 kts | 263° |
| 2026-04-09 20:01 | 59.33770 | 26.14849 | 32363 ft | 566 kts | 263° |
| 2026-04-09 20:01 | 59.32814 | 25.99629 | 32386 ft | 563 kts | 263° |
| 2026-04-09 20:02 | 59.31839 | 25.84411 | 32396 ft | 565 kts | 263° |
| 2026-04-09 20:02 | 59.30844 | 25.69160 | 32393 ft | 564 kts | 263° |
| 2026-04-09 20:03 | 59.29827 | 25.53849 | 32410 ft | 565 kts | 263° |
| 2026-04-09 20:03 | 59.28789 | 25.38508 | 32412 ft | 565 kts | 263° |
| 2026-04-09 20:04 | 59.27737 | 25.23229 | 32405 ft | 567 kts | 262° |
| 2026-04-09 20:04 | 59.26664 | 25.07921 | 32409 ft | 565 kts | 262° |
| 2026-04-09 20:05 | 59.25570 | 24.92583 | 32397 ft | 569 kts | 262° |
| 2026-04-09 20:05 | 59.24458 | 24.77256 | 32407 ft | 568 kts | 262° |
| 2026-04-09 20:06 | 59.23336 | 24.62047 | 32396 ft | 570 kts | 262° |
| 2026-04-09 20:06 | 59.22187 | 24.46712 | 32396 ft | 567 kts | 262° |
| 2026-04-09 20:07 | 59.21027 | 24.31494 | 32375 ft | 567 kts | 261° |
| 2026-04-09 20:07 | 59.19842 | 24.16188 | 32373 ft | 570 kts | 261° |
| 2026-04-09 20:08 | 59.18643 | 24.00942 | 32373 ft | 570 kts | 261° |
| 2026-04-09 20:08 | 59.17424 | 23.85684 | 32387 ft | 568 kts | 262° |
| 2026-04-09 20:09 | 59.16187 | 23.70432 | 32392 ft | 572 kts | 262° |
| 2026-04-09 20:09 | 59.14926 | 23.55117 | 32396 ft | 571 kts | 261° |
| 2026-04-09 20:10 | 59.13654 | 23.39896 | 32396 ft | 572 kts | 262° |
| 2026-04-09 20:10 | 59.12356 | 23.24579 | 32390 ft | 570 kts | 261° |
| 2026-04-09 20:11 | 59.11048 | 23.09382 | 32384 ft | 574 kts | 261° |
| 2026-04-09 20:11 | 59.09710 | 22.94056 | 32378 ft | 573 kts | 261° |
| 2026-04-09 20:12 | 59.08359 | 22.78788 | 32385 ft | 573 kts | 261° |
| 2026-04-09 20:12 | 59.06989 | 22.63533 | 32379 ft | 573 kts | 261° |
| 2026-04-09 20:13 | 59.05589 | 22.48140 | 32390 ft | 574 kts | 261° |
| 2026-04-09 20:13 | 59.04176 | 22.32838 | 32384 ft | 573 kts | 260° |
| 2026-04-09 20:14 | 59.02758 | 22.17673 | 32398 ft | 573 kts | 260° |
| 2026-04-09 20:14 | 59.01310 | 22.02394 | 32389 ft | 574 kts | 261° |
| 2026-04-09 20:15 | 58.99847 | 21.87159 | 32411 ft | 572 kts | 261° |
| 2026-04-09 20:15 | 58.98375 | 21.72019 | 32410 ft | 574 kts | 261° |
| 2026-04-09 20:16 | 58.96883 | 21.56879 | 32399 ft | 571 kts | 261° |
| 2026-04-09 20:16 | 58.95374 | 21.41752 | 32405 ft | 570 kts | 261° |
| 2026-04-09 20:17 | 58.93842 | 21.26591 | 32392 ft | 570 kts | 260° |
| 2026-04-09 20:17 | 58.92297 | 21.11491 | 32414 ft | 569 kts | 260° |
| 2026-04-09 20:18 | 58.90744 | 20.96486 | 32405 ft | 568 kts | 260° |
| 2026-04-09 20:18 | 58.89739 | 20.81481 | 32403 ft | 563 kts | 272° |
| 2026-04-09 20:19 | 58.89658 | 20.66303 | 32401 ft | 561 kts | 272° |
| 2026-04-09 20:19 | 58.89497 | 20.51239 | 32401 ft | 562 kts | 272° |
| 2026-04-09 20:20 | 58.89255 | 20.36036 | 32403 ft | 558 kts | 272° |
| 2026-04-09 20:20 | 58.88963 | 20.20941 | 32390 ft | 559 kts | 270° |
| 2026-04-09 20:21 | 58.88637 | 20.05964 | 32385 ft | 558 kts | 270° |
| 2026-04-09 20:21 | 58.88280 | 19.90915 | 32390 ft | 556 kts | 270° |
| 2026-04-09 20:22 | 58.87901 | 19.75961 | 32383 ft | 556 kts | 270° |
| 2026-04-09 20:22 | 58.87500 | 19.60945 | 32376 ft | 554 kts | 270° |
| 2026-04-09 20:23 | 58.87082 | 19.46024 | 32382 ft | 554 kts | 270° |
| 2026-04-09 20:23 | 58.86645 | 19.31081 | 32392 ft | 554 kts | 269° |
| 2026-04-09 20:24 | 58.86193 | 19.16269 | 32379 ft | 551 kts | 269° |
| 2026-04-09 20:24 | 58.85727 | 19.01529 | 32376 ft | 551 kts | 269° |
| 2026-04-09 20:25 | 58.85244 | 18.86823 | 32398 ft | 549 kts | 269° |
| 2026-04-09 20:25 | 58.84747 | 18.72161 | 32378 ft | 549 kts | 270° |
| 2026-04-09 20:26 | 58.84230 | 18.57443 | 32403 ft | 549 kts | 269° |
| 2026-04-09 20:26 | 58.83696 | 18.42716 | 32362 ft | 545 kts | 270° |
| 2026-04-09 20:27 | 58.83150 | 18.28135 | 32372 ft | 544 kts | 269° |
| 2026-04-09 20:27 | 58.82585 | 18.13468 | 32380 ft | 542 kts | 268° |
| 2026-04-09 20:28 | 58.82007 | 17.98903 | 32379 ft | 543 kts | 269° |
| 2026-04-09 20:28 | 58.80835 | 17.84394 | 32383 ft | 546 kts | 257° |
| 2026-04-09 20:29 | 58.78748 | 17.70240 | 32381 ft | 545 kts | 256° |
| 2026-04-09 20:29 | 58.76620 | 17.56250 | 32376 ft | 543 kts | 256° |
| 2026-04-09 20:30 | 58.74469 | 17.42290 | 32383 ft | 541 kts | 256° |
| 2026-04-09 20:30 | 58.72289 | 17.28301 | 32378 ft | 541 kts | 255° |
| 2026-04-09 20:31 | 58.70100 | 17.14392 | 32374 ft | 540 kts | 255° |
| 2026-04-09 20:31 | 58.67919 | 17.00651 | 32375 ft | 538 kts | 255° |
| 2026-04-09 20:32 | 58.65723 | 16.86932 | 32376 ft | 536 kts | 255° |
| 2026-04-09 20:32 | 58.63507 | 16.73205 | 32377 ft | 537 kts | 255° |
| 2026-04-09 20:33 | 58.61274 | 16.59482 | 32378 ft | 535 kts | 255° |
| 2026-04-09 20:33 | 58.59035 | 16.45826 | 32378 ft | 535 kts | 255° |
| 2026-04-09 20:34 | 58.56789 | 16.32233 | 32377 ft | 534 kts | 255° |
| 2026-04-09 20:34 | 58.54522 | 16.18624 | 32375 ft | 532 kts | 254° |
| 2026-04-09 20:35 | 58.52262 | 16.05158 | 32376 ft | 532 kts | 254° |
| 2026-04-09 20:35 | 58.49965 | 15.91570 | 32371 ft | 532 kts | 255° |
| 2026-04-09 20:36 | 58.47685 | 15.78190 | 32362 ft | 530 kts | 254° |
| 2026-04-09 20:36 | 58.45401 | 15.64881 | 32336 ft | 527 kts | 254° |
| 2026-04-09 20:37 | 58.42929 | 15.51687 | 32337 ft | 529 kts | 246° |
| 2026-04-09 20:37 | 58.38938 | 15.40165 | 32349 ft | 514 kts | 229° |
| 2026-04-09 20:38 | 58.33462 | 15.31579 | 32343 ft | 514 kts | 210° |
| 2026-04-09 20:38 | 58.26897 | 15.26431 | 32319 ft | 512 kts | 192° |
| 2026-04-09 20:39 | 58.19864 | 15.25184 | 32323 ft | 508 kts | 174° |
| 2026-04-09 20:39 | 58.12988 | 15.27915 | 32326 ft | 505 kts | 156° |
| 2026-04-09 20:40 | 58.06922 | 15.34306 | 32330 ft | 494 kts | 138° |
| 2026-04-09 20:40 | 58.02208 | 15.43770 | 32321 ft | 489 kts | 119° |
| 2026-04-09 20:41 | 57.99323 | 15.55233 | 32322 ft | 478 kts | 101° |
| 2026-04-09 20:41 | 57.98502 | 15.67521 | 32338 ft | 465 kts | 84° |
| 2026-04-09 20:42 | 57.99762 | 15.79282 | 32332 ft | 457 kts | 66° |
| 2026-04-09 20:42 | 58.02950 | 15.89515 | 32343 ft | 451 kts | 48° |
| 2026-04-09 20:43 | 58.07685 | 15.97086 | 32346 ft | 444 kts | 30° |
| 2026-04-09 20:43 | 58.13404 | 16.01172 | 32346 ft | 445 kts | 12° |
| 2026-04-09 20:44 | 58.19645 | 16.01415 | 32346 ft | 452 kts | 354° |
| 2026-04-09 20:44 | 58.25714 | 15.97646 | 32358 ft | 464 kts | 335° |
| 2026-04-09 20:45 | 58.30897 | 15.90236 | 32348 ft | 473 kts | 317° |
| 2026-04-09 20:45 | 58.34680 | 15.79854 | 32347 ft | 486 kts | 300° |
| 2026-04-09 20:46 | 58.36730 | 15.67317 | 32333 ft | 507 kts | 282° |
| 2026-04-09 20:46 | 58.36984 | 15.60551 | 32340 ft | 519 kts | 273° |
| 2026-04-09 20:46 | 58.36664 | 15.53658 | 32367 ft | 524 kts | 263° |
| 2026-04-09 20:47 | 58.34786 | 15.40213 | 32344 ft | 526 kts | 256° |
| 2026-04-09 20:47 | 58.32696 | 15.26814 | 32358 ft | 524 kts | 255° |
| 2026-04-09 20:48 | 58.30602 | 15.13495 | 32314 ft | 525 kts | 256° |
| 2026-04-09 20:48 | 58.28500 | 15.00230 | 32309 ft | 523 kts | 255° |
| 2026-04-09 20:49 | 58.26396 | 14.87056 | 32320 ft | 522 kts | 255° |
| 2026-04-09 20:49 | 58.24270 | 14.73841 | 32307 ft | 521 kts | 255° |
| 2026-04-09 20:50 | 58.22136 | 14.60676 | 32306 ft | 522 kts | 255° |
| 2026-04-09 20:50 | 58.19986 | 14.47517 | 32308 ft | 521 kts | 255° |
| 2026-04-09 20:51 | 58.17850 | 14.34538 | 32315 ft | 518 kts | 254° |
| 2026-04-09 20:51 | 58.15690 | 14.21509 | 32311 ft | 517 kts | 254° |
| 2026-04-09 20:52 | 58.13516 | 14.08487 | 32304 ft | 517 kts | 253° |
| 2026-04-09 20:52 | 58.11337 | 13.95535 | 32260 ft | 517 kts | 253° |
| 2026-04-09 20:53 | 58.09132 | 13.82523 | 32245 ft | 517 kts | 253° |
| 2026-04-09 20:53 | 58.06932 | 13.69630 | 32243 ft | 517 kts | 253° |
| 2026-04-09 20:54 | 58.04713 | 13.56724 | 32257 ft | 515 kts | 254° |
| 2026-04-09 20:54 | 58.02474 | 13.43790 | 32244 ft | 516 kts | 253° |
| 2026-04-09 20:55 | 58.00240 | 13.30977 | 32252 ft | 515 kts | 252° |
| 2026-04-09 20:55 | 57.97975 | 13.18075 | 32262 ft | 515 kts | 253° |
| 2026-04-09 20:56 | 57.95698 | 13.05194 | 32247 ft | 514 kts | 253° |
| 2026-04-09 20:56 | 57.93439 | 12.92504 | 32269 ft | 514 kts | 252° |
| 2026-04-09 20:57 | 57.91133 | 12.79640 | 32268 ft | 513 kts | 252° |
| 2026-04-09 20:57 | 57.88842 | 12.66945 | 32237 ft | 514 kts | 253° |
| 2026-04-09 20:58 | 57.86530 | 12.54223 | 32229 ft | 513 kts | 253° |
| 2026-04-09 20:58 | 57.84204 | 12.41508 | 32212 ft | 513 kts | 253° |
| 2026-04-09 20:59 | 57.81874 | 12.28858 | 32239 ft | 512 kts | 252° |
| 2026-04-09 20:59 | 57.79585 | 12.16179 | 32243 ft | 510 kts | 257° |
| 2026-04-09 21:00 | 57.78045 | 12.03215 | 32218 ft | 507 kts | 259° |
| 2026-04-09 21:01 | 57.75745 | 11.83773 | 32233 ft | 509 kts | 259° |
| 2026-04-09 21:01 | 57.74160 | 11.70844 | 32238 ft | 507 kts | 259° |
| 2026-04-09 21:02 | 57.72556 | 11.57983 | 32239 ft | 506 kts | 259° |
| 2026-04-09 21:02 | 57.70923 | 11.45075 | 32236 ft | 506 kts | 258° |
| 2026-04-09 21:03 | 57.69287 | 11.32288 | 32228 ft | 504 kts | 258° |
| 2026-04-09 21:03 | 57.67623 | 11.19418 | 32225 ft | 503 kts | 258° |
| 2026-04-09 21:04 | 57.65958 | 11.06665 | 32213 ft | 503 kts | 258° |
| 2026-04-09 21:04 | 57.64289 | 10.93986 | 32217 ft | 502 kts | 258° |
| 2026-04-09 21:05 | 57.62605 | 10.81315 | 32218 ft | 501 kts | 258° |
| 2026-04-09 21:05 | 57.60909 | 10.68651 | 32216 ft | 501 kts | 258° |
| 2026-04-09 21:06 | 57.59199 | 10.55995 | 32204 ft | 499 kts | 257° |
| 2026-04-09 21:06 | 57.57477 | 10.43358 | 32210 ft | 500 kts | 257° |
| 2026-04-09 21:07 | 57.55751 | 10.30789 | 32188 ft | 499 kts | 256° |
| 2026-04-09 21:07 | 57.54009 | 10.18217 | 32202 ft | 500 kts | 256° |
| 2026-04-09 21:08 | 57.52256 | 10.05661 | 32186 ft | 502 kts | 256° |
| 2026-04-09 21:08 | 57.50483 | 9.93067 | 32185 ft | 501 kts | 256° |
| 2026-04-09 21:09 | 57.48696 | 9.80472 | 32179 ft | 500 kts | 256° |
| 2026-04-09 21:09 | 57.46906 | 9.67957 | 32177 ft | 499 kts | 255° |
| 2026-04-09 21:10 | 57.45104 | 9.55454 | 32173 ft | 499 kts | 255° |
| 2026-04-09 21:10 | 57.43301 | 9.43042 | 32158 ft | 499 kts | 255° |
| 2026-04-09 21:11 | 57.41468 | 9.30525 | 32150 ft | 499 kts | 254° |
| 2026-04-09 21:11 | 57.39632 | 9.18083 | 32135 ft | 499 kts | 253° |
| 2026-04-09 21:12 | 57.37781 | 9.05635 | 32121 ft | 500 kts | 253° |
| 2026-04-09 21:12 | 57.35914 | 8.93169 | 32119 ft | 500 kts | 253° |
| 2026-04-09 21:13 | 57.34036 | 8.80729 | 32109 ft | 499 kts | 253° |
| 2026-04-09 21:13 | 57.32142 | 8.68284 | 32102 ft | 499 kts | 253° |
| 2026-04-09 21:14 | 57.30244 | 8.55900 | 32092 ft | 499 kts | 253° |
| 2026-04-09 21:14 | 57.28332 | 8.43511 | 32092 ft | 499 kts | 253° |
| 2026-04-09 21:15 | 57.26404 | 8.31116 | 32074 ft | 498 kts | 252° |
| 2026-04-09 21:15 | 57.24462 | 8.18722 | 32083 ft | 499 kts | 252° |
| 2026-04-09 21:16 | 57.22528 | 8.06469 | 32067 ft | 497 kts | 252° |
| 2026-04-09 21:16 | 57.20583 | 7.94233 | 32066 ft | 497 kts | 251° |
| 2026-04-09 21:17 | 57.18621 | 7.81984 | 32050 ft | 496 kts | 251° |
| 2026-04-09 21:17 | 57.16632 | 7.69644 | 32040 ft | 497 kts | 251° |
| 2026-04-09 21:18 | 57.14645 | 7.57416 | 32037 ft | 498 kts | 251° |
| 2026-04-09 21:18 | 57.12637 | 7.45135 | 32027 ft | 497 kts | 251° |
| 2026-04-09 21:19 | 57.10616 | 7.32865 | 32016 ft | 497 kts | 250° |
| 2026-04-09 21:19 | 57.08601 | 7.20717 | 32011 ft | 495 kts | 249° |
| 2026-04-09 21:20 | 57.06573 | 7.08573 | 32022 ft | 495 kts | 249° |
| 2026-04-09 21:20 | 57.04529 | 6.96419 | 31998 ft | 495 kts | 249° |
| 2026-04-09 21:21 | 57.02492 | 6.84387 | 31980 ft | 494 kts | 249° |
| 2026-04-09 21:21 | 57.00414 | 6.72419 | 31955 ft | 492 kts | 246° |
| 2026-04-09 21:22 | 56.97587 | 6.60943 | 31955 ft | 489 kts | 241° |
| 2026-04-09 21:22 | 56.94667 | 6.49727 | 31942 ft | 488 kts | 240° |
| 2026-04-09 21:23 | 56.91709 | 6.38492 | 31986 ft | 488 kts | 240° |
| 2026-04-09 21:23 | 56.88729 | 6.27275 | 31957 ft | 488 kts | 240° |
| 2026-04-09 21:24 | 56.85778 | 6.16232 | 31957 ft | 486 kts | 239° |
| 2026-04-09 21:24 | 56.82807 | 6.05186 | 31924 ft | 485 kts | 239° |
| 2026-04-09 21:25 | 56.79826 | 5.94167 | 31936 ft | 483 kts | 239° |
| 2026-04-09 21:25 | 56.76825 | 5.83134 | 31964 ft | 486 kts | 239° |
| 2026-04-09 21:26 | 56.73826 | 5.72150 | 31918 ft | 484 kts | 238° |
| 2026-04-09 21:26 | 56.70829 | 5.61236 | 31918 ft | 484 kts | 238° |
| 2026-04-09 21:27 | 56.67828 | 5.50364 | 31897 ft | 483 kts | 238° |
| 2026-04-09 21:27 | 56.64823 | 5.39516 | 31886 ft | 481 kts | 238° |
| 2026-04-09 21:28 | 56.61791 | 5.28622 | 31867 ft | 482 kts | 237° |
| 2026-04-09 21:28 | 56.58761 | 5.17789 | 31901 ft | 481 kts | 237° |
| 2026-04-09 21:29 | 56.55724 | 5.06987 | 31886 ft | 479 kts | 236° |
| 2026-04-09 21:29 | 56.52730 | 4.96164 | 31873 ft | 481 kts | 240° |
| 2026-04-09 21:30 | 56.50128 | 4.84909 | 31847 ft | 482 kts | 240° |
| 2026-04-09 21:30 | 56.47516 | 4.73661 | 31852 ft | 481 kts | 240° |
| 2026-04-09 21:31 | 56.44886 | 4.62480 | 31809 ft | 481 kts | 240° |
| 2026-04-09 21:31 | 56.42256 | 4.51396 | 31837 ft | 483 kts | 240° |
| 2026-04-09 21:32 | 56.39588 | 4.40233 | 31859 ft | 480 kts | 240° |
| 2026-04-09 21:32 | 56.36903 | 4.29066 | 31823 ft | 482 kts | 239° |
| 2026-04-09 21:33 | 56.34241 | 4.18054 | 31832 ft | 480 kts | 239° |
| 2026-04-09 21:33 | 56.31563 | 4.07036 | 31823 ft | 479 kts | 239° |
| 2026-04-09 21:34 | 56.28867 | 3.96009 | 31822 ft | 480 kts | 239° |
| 2026-04-09 21:34 | 56.26147 | 3.84937 | 31815 ft | 482 kts | 239° |
| 2026-04-09 21:35 | 56.23431 | 3.73932 | 31819 ft | 479 kts | 239° |
| 2026-04-09 21:35 | 56.20699 | 3.62924 | 31849 ft | 481 kts | 239° |
| 2026-04-09 21:36 | 56.18086 | 3.51740 | 31857 ft | 488 kts | 245° |
| 2026-04-09 21:36 | 56.16874 | 3.39589 | 31837 ft | 501 kts | 258° |
| 2026-04-09 21:37 | 56.16320 | 3.27089 | 31875 ft | 505 kts | 257° |
| 2026-04-09 21:37 | 56.15736 | 3.14500 | 31828 ft | 507 kts | 257° |
| 2026-04-09 21:38 | 56.15122 | 3.01846 | 31864 ft | 504 kts | 257° |
| 2026-04-09 21:38 | 56.14492 | 2.89297 | 31827 ft | 505 kts | 257° |
| 2026-04-09 21:39 | 56.13850 | 2.76818 | 31850 ft | 503 kts | 257° |
| 2026-04-09 21:39 | 56.13189 | 2.64277 | 31884 ft | 501 kts | 257° |
| 2026-04-09 21:40 | 56.12519 | 2.51866 | 31829 ft | 501 kts | 258° |
| 2026-04-09 21:40 | 56.11828 | 2.39310 | 31816 ft | 503 kts | 258° |
| 2026-04-09 21:41 | 56.11133 | 2.26890 | 31836 ft | 499 kts | 257° |
| 2026-04-09 21:41 | 56.10425 | 2.14486 | 31815 ft | 499 kts | 258° |
| 2026-04-09 21:42 | 56.09704 | 2.02072 | 31886 ft | 496 kts | 257° |
| 2026-04-09 21:42 | 56.09340 | 1.95899 | 31765 ft | 500 kts | 258° |
| 2026-04-09 21:42 | 56.08973 | 1.89717 | 31764 ft | 498 kts | 258° |
| 2026-04-09 21:42 | 56.08601 | 1.83500 | 31957 ft | 495 kts | 258° |
| 2026-04-09 21:43 | 56.08230 | 1.77353 | 31839 ft | 495 kts | 258° |
| 2026-04-09 21:43 | 56.07481 | 1.65120 | 31792 ft | 495 kts | 258° |
| 2026-04-09 21:44 | 56.06711 | 1.52746 | 31833 ft | 495 kts | 259° |
| 2026-04-09 21:44 | 56.05936 | 1.40499 | 31882 ft | 498 kts | 259° |
| 2026-04-09 21:45 | 56.05152 | 1.28266 | 31924 ft | 495 kts | 258° |
| 2026-04-09 21:45 | 56.04351 | 1.16011 | 31830 ft | 499 kts | 258° |
| 2026-04-09 21:46 | 56.03535 | 1.03689 | 31847 ft | 498 kts | 258° |
| 2026-04-09 21:46 | 56.02716 | 0.91509 | 31859 ft | 497 kts | 259° |
| 2026-04-09 21:47 | 56.01880 | 0.79272 | 31887 ft | 496 kts | 258° |
| 2026-04-09 21:47 | 56.01035 | 0.67077 | 31876 ft | 497 kts | 259° |
| 2026-04-09 21:48 | 56.00179 | 0.54912 | 31865 ft | 495 kts | 259° |
| 2026-04-09 21:48 | 55.99304 | 0.42652 | 31843 ft | 497 kts | 259° |
| 2026-04-09 21:49 | 55.98420 | 0.30432 | 31910 ft | 494 kts | 259° |
| 2026-04-09 21:49 | 55.97525 | 0.18241 | 31888 ft | 493 kts | 259° |
| 2026-04-09 21:50 | 55.96625 | 0.06147 | 31901 ft | 495 kts | 259° |
| 2026-04-09 21:50 | 55.95709 | -0.05993 | 31900 ft | 495 kts | 259° |
| 2026-04-09 21:51 | 55.94780 | -0.18146 | 31922 ft | 497 kts | 259° |
| 2026-04-09 21:51 | 55.93834 | -0.30354 | 31894 ft | 496 kts | 259° |
| 2026-04-09 21:52 | 55.92884 | -0.42452 | 31905 ft | 493 kts | 260° |
| 2026-04-09 21:52 | 55.91755 | -0.54506 | 31920 ft | 491 kts | 253° |
| 2026-04-09 21:53 | 55.89809 | -0.66150 | 31926 ft | 492 kts | 251° |
| 2026-04-09 21:53 | 55.87783 | -0.77806 | 31940 ft | 491 kts | 251° |
| 2026-04-09 21:54 | 55.85745 | -0.89367 | 31920 ft | 490 kts | 251° |
| 2026-04-09 21:54 | 55.83667 | -1.01040 | 31917 ft | 493 kts | 251° |
| 2026-04-09 21:55 | 55.81578 | -1.12681 | 31934 ft | 492 kts | 251° |
| 2026-04-09 21:55 | 55.79483 | -1.24267 | 31947 ft | 490 kts | 252° |
| 2026-04-09 21:56 | 55.77378 | -1.35830 | 31949 ft | 488 kts | 252° |
| 2026-04-09 21:56 | 55.75268 | -1.47340 | 31948 ft | 487 kts | 252° |
| 2026-04-09 21:57 | 55.73148 | -1.58834 | 31945 ft | 489 kts | 252° |
| 2026-04-09 21:57 | 55.71028 | -1.70259 | 31961 ft | 485 kts | 251° |
| 2026-04-09 21:58 | 55.68895 | -1.81682 | 31967 ft | 485 kts | 252° |
| 2026-04-09 21:58 | 55.66765 | -1.93026 | 31957 ft | 484 kts | 252° |
| 2026-04-09 21:59 | 55.64624 | -2.04352 | 31969 ft | 483 kts | 252° |
| 2026-04-09 21:59 | 55.62473 | -2.15668 | 31956 ft | 481 kts | 252° |
| 2026-04-09 22:00 | 55.60312 | -2.26973 | 31952 ft | 481 kts | 252° |
| 2026-04-09 22:00 | 55.58145 | -2.38234 | 31955 ft | 479 kts | 252° |
| 2026-04-09 22:01 | 55.55969 | -2.49481 | 31970 ft | 480 kts | 252° |
| 2026-04-09 22:01 | 55.53797 | -2.60644 | 31983 ft | 480 kts | 252° |
| 2026-04-09 22:02 | 55.51614 | -2.71793 | 31999 ft | 477 kts | 252° |
| 2026-04-09 22:02 | 55.49424 | -2.82917 | 31993 ft | 478 kts | 252° |
| 2026-04-09 22:03 | 55.47228 | -2.94013 | 31991 ft | 476 kts | 252° |
| 2026-04-09 22:03 | 55.44742 | -3.04932 | 31989 ft | 477 kts | 248° |
| 2026-04-09 22:04 | 55.42043 | -3.15521 | 32000 ft | 477 kts | 248° |
| 2026-04-09 22:04 | 55.39298 | -3.26216 | 31974 ft | 478 kts | 248° |
| 2026-04-09 22:05 | 55.36528 | -3.36948 | 31990 ft | 475 kts | 248° |
| 2026-04-09 22:05 | 55.32418 | -3.52774 | 32005 ft | 472 kts | 248° |
| 2026-04-09 22:06 | 55.29707 | -3.63147 | 32013 ft | 459 kts | 248° |
| 2026-04-09 22:06 | 55.28378 | -3.68210 | 32039 ft | 447 kts | 248° |
| 2026-04-09 22:06 | 55.27079 | -3.73156 | 32034 ft | 442 kts | 248° |
| 2026-04-09 22:07 | 55.24469 | -3.83063 | 32034 ft | 445 kts | 248° |
| 2026-04-09 22:07 | 55.21877 | -3.92875 | 32022 ft | 442 kts | 248° |
| 2026-04-09 22:08 | 55.19286 | -4.02701 | 32041 ft | 443 kts | 248° |
| 2026-04-09 22:08 | 55.16714 | -4.12409 | 32017 ft | 443 kts | 248° |
| 2026-04-09 22:09 | 55.14128 | -4.22132 | 32052 ft | 439 kts | 249° |
| 2026-04-09 22:09 | 55.11565 | -4.31728 | 32023 ft | 440 kts | 248° |
| 2026-04-09 22:10 | 55.08962 | -4.41433 | 32048 ft | 438 kts | 249° |
| 2026-04-09 22:10 | 55.06379 | -4.51023 | 32068 ft | 442 kts | 249° |
| 2026-04-09 22:11 | 55.03764 | -4.60688 | 32075 ft | 439 kts | 249° |
| 2026-04-09 22:11 | 55.01152 | -4.70299 | 32080 ft | 438 kts | 248° |
| 2026-04-09 22:12 | 54.98533 | -4.79899 | 32101 ft | 435 kts | 248° |
| 2026-04-09 22:12 | 54.95924 | -4.89424 | 32150 ft | 438 kts | 249° |
| 2026-04-09 22:13 | 54.93295 | -4.98975 | 32111 ft | 433 kts | 249° |
| 2026-04-09 22:13 | 54.90688 | -5.08415 | 32138 ft | 432 kts | 249° |
| 2026-04-09 22:14 | 54.88082 | -5.17811 | 32141 ft | 433 kts | 249° |
| 2026-04-09 22:14 | 54.85481 | -5.27147 | 32132 ft | 427 kts | 249° |
| 2026-04-09 22:15 | 54.82894 | -5.36397 | 32136 ft | 426 kts | 249° |
| 2026-04-09 22:15 | 54.80287 | -5.45685 | 32139 ft | 429 kts | 249° |
| 2026-04-09 22:16 | 54.77665 | -5.54989 | 32176 ft | 430 kts | 249° |
| 2026-04-09 22:16 | 54.75066 | -5.64170 | 32089 ft | 425 kts | 249° |
| 2026-04-09 22:17 | 54.72445 | -5.73397 | 32096 ft | 424 kts | 248° |
| 2026-04-09 22:17 | 54.69797 | -5.82685 | 32136 ft | 428 kts | 249° |
| 2026-04-09 22:18 | 54.67181 | -5.91811 | 32032 ft | 417 kts | 249° |
| 2026-04-09 22:18 | 54.65895 | -5.96282 | 31565 ft | 414 kts | 250° |
| 2026-04-09 22:18 | 54.64604 | -6.00767 | 30892 ft | 413 kts | 250° |
| 2026-04-09 22:19 | 54.63337 | -6.05155 | 30545 ft | 407 kts | 250° |
| 2026-04-09 22:19 | 54.62096 | -6.09443 | 30140 ft | 401 kts | 251° |
| 2026-04-09 22:19 | 54.60850 | -6.13744 | 29684 ft | 396 kts | 251° |
| 2026-04-09 22:19 | 54.59636 | -6.17925 | 29219 ft | 390 kts | 251° |
| 2026-04-09 22:20 | 54.58424 | -6.22089 | 28770 ft | 384 kts | 251° |
| 2026-04-09 22:20 | 54.57246 | -6.26131 | 28442 ft | 374 kts | 251° |
| 2026-04-09 22:20 | 54.56097 | -6.30056 | 28340 ft | 359 kts | 251° |
| 2026-04-09 22:20 | 54.54987 | -6.33838 | 28269 ft | 345 kts | 251° |
| 2026-04-09 22:21 | 54.53925 | -6.37454 | 27963 ft | 338 kts | 252° |
| 2026-04-09 22:21 | 54.52880 | -6.41015 | 27579 ft | 332 kts | 251° |
| 2026-04-09 22:21 | 54.51847 | -6.44529 | 27182 ft | 326 kts | 252° |
| 2026-04-09 22:21 | 54.50829 | -6.47990 | 26825 ft | 320 kts | 252° |
| 2026-04-09 22:22 | 54.49826 | -6.51389 | 26463 ft | 314 kts | 252° |
| 2026-04-09 22:22 | 54.48837 | -6.54741 | 26121 ft | 309 kts | 251° |
| 2026-04-09 22:22 | 54.47866 | -6.58025 | 25746 ft | 304 kts | 252° |
| 2026-04-09 22:22 | 54.46919 | -6.61227 | 25369 ft | 298 kts | 252° |
| 2026-04-09 22:23 | 54.45992 | -6.64356 | 25029 ft | 293 kts | 252° |
| 2026-04-09 22:23 | 54.45084 | -6.67418 | 24694 ft | 287 kts | 251° |
| 2026-04-09 22:23 | 54.44177 | -6.70468 | 24362 ft | 282 kts | 251° |
| 2026-04-09 22:23 | 54.43305 | -6.73400 | 24021 ft | 276 kts | 251° |
| 2026-04-09 22:24 | 54.42435 | -6.76321 | 23692 ft | 271 kts | 252° |
| 2026-04-09 22:24 | 54.41591 | -6.79154 | 23358 ft | 265 kts | 251° |
| 2026-04-09 22:24 | 54.40751 | -6.81977 | 23083 ft | 273 kts | 251° |
| 2026-04-09 22:24 | 54.39858 | -6.85003 | 22743 ft | 287 kts | 251° |
| 2026-04-09 22:25 | 54.38950 | -6.88053 | 22342 ft | 284 kts | 250° |
| 2026-04-09 22:25 | 54.38057 | -6.91033 | 22027 ft | 278 kts | 250° |
| 2026-04-09 22:25 | 54.37188 | -6.93928 | 21715 ft | 272 kts | 251° |
| 2026-04-09 22:25 | 54.36317 | -6.96830 | 21400 ft | 267 kts | 250° |
| 2026-04-09 22:26 | 54.35479 | -6.99618 | 21053 ft | 262 kts | 251° |
| 2026-04-09 22:26 | 54.34647 | -7.02393 | 20760 ft | 270 kts | 250° |
| 2026-04-09 22:26 | 54.33766 | -7.05345 | 20421 ft | 278 kts | 250° |
| 2026-04-09 22:26 | 54.32883 | -7.08278 | 20077 ft | 275 kts | 249° |
| 2026-04-09 22:27 | 54.31997 | -7.11215 | 19743 ft | 273 kts | 250° |
| 2026-04-09 22:27 | 54.31132 | -7.14079 | 19409 ft | 273 kts | 250° |
| 2026-04-09 22:27 | 54.30253 | -7.16998 | 19060 ft | 274 kts | 250° |
| 2026-04-09 22:27 | 54.29389 | -7.19849 | 18733 ft | 269 kts | 249° |
| 2026-04-09 22:28 | 54.28535 | -7.22665 | 18431 ft | 265 kts | 250° |
| 2026-04-09 22:28 | 54.27681 | -7.25481 | 18124 ft | 267 kts | 250° |
| 2026-04-09 22:28 | 54.26830 | -7.28293 | 17799 ft | 268 kts | 249° |
| 2026-04-09 22:28 | 54.25963 | -7.31144 | 17476 ft | 267 kts | 249° |
| 2026-04-09 22:29 | 54.25113 | -7.33940 | 17151 ft | 267 kts | 249° |
| 2026-04-09 22:29 | 54.24247 | -7.36783 | 16825 ft | 267 kts | 249° |
| 2026-04-09 22:29 | 54.23394 | -7.39579 | 16490 ft | 265 kts | 249° |
| 2026-04-09 22:29 | 54.22531 | -7.42407 | 16175 ft | 264 kts | 249° |
| 2026-04-09 22:30 | 54.21682 | -7.45185 | 15851 ft | 264 kts | 249° |
| 2026-04-09 22:30 | 54.20835 | -7.47953 | 15523 ft | 264 kts | 249° |
| 2026-04-09 22:30 | 54.19982 | -7.50740 | 15202 ft | 264 kts | 249° |
| 2026-04-09 22:30 | 54.19116 | -7.53564 | 14876 ft | 264 kts | 249° |
| 2026-04-09 22:31 | 54.18263 | -7.56345 | 14552 ft | 263 kts | 249° |
| 2026-04-09 22:31 | 54.17417 | -7.59095 | 14226 ft | 264 kts | 249° |
| 2026-04-09 22:31 | 54.16558 | -7.61889 | 13894 ft | 264 kts | 248° |
| 2026-04-09 22:31 | 54.15701 | -7.64668 | 13560 ft | 262 kts | 248° |
| 2026-04-09 22:32 | 54.14847 | -7.67437 | 13255 ft | 262 kts | 248° |
| 2026-04-09 22:32 | 54.14001 | -7.70176 | 12937 ft | 262 kts | 248° |
| 2026-04-09 22:32 | 54.13152 | -7.72925 | 12605 ft | 261 kts | 247° |
| 2026-04-09 22:32 | 54.12299 | -7.75682 | 12283 ft | 260 kts | 247° |
| 2026-04-09 22:33 | 54.11452 | -7.78414 | 11962 ft | 260 kts | 247° |
| 2026-04-09 22:33 | 54.10597 | -7.81169 | 11644 ft | 259 kts | 247° |
| 2026-04-09 22:33 | 54.09750 | -7.83899 | 11327 ft | 259 kts | 247° |
| 2026-04-09 22:33 | 54.08902 | -7.86628 | 11001 ft | 260 kts | 247° |
| 2026-04-09 22:34 | 54.08057 | -7.89343 | 10653 ft | 259 kts | 246° |
| 2026-04-09 22:34 | 54.07202 | -7.92087 | 10210 ft | 261 kts | 247° |
| 2026-04-09 22:34 | 54.06354 | -7.94803 | 9942 ft | 255 kts | 247° |
| 2026-04-09 22:34 | 54.05534 | -7.97423 | 9730 ft | 248 kts | 247° |
| 2026-04-09 22:35 | 54.04729 | -7.99994 | 9415 ft | 245 kts | 247° |
| 2026-04-09 22:35 | 54.03930 | -8.02548 | 9106 ft | 242 kts | 247° |
| 2026-04-09 22:35 | 54.03138 | -8.05073 | 8812 ft | 239 kts | 247° |
| 2026-04-09 22:35 | 54.02354 | -8.07575 | 8518 ft | 236 kts | 247° |
| 2026-04-09 22:36 | 54.01593 | -8.10002 | 8230 ft | 237 kts | 247° |
| 2026-04-09 22:36 | 54.00796 | -8.12544 | 7938 ft | 242 kts | 247° |
| 2026-04-09 22:36 | 54.00005 | -8.15062 | 7639 ft | 240 kts | 247° |
| 2026-04-09 22:36 | 53.99227 | -8.17531 | 7361 ft | 239 kts | 247° |
| 2026-04-09 22:37 | 53.98438 | -8.20048 | 7070 ft | 239 kts | 249° |
| 2026-04-09 22:37 | 53.97944 | -8.22697 | 6790 ft | 232 kts | 262° |
| 2026-04-09 22:37 | 53.97632 | -8.25363 | 6549 ft | 226 kts | 264° |
| 2026-04-09 22:37 | 53.97352 | -8.27963 | 6382 ft | 218 kts | 261° |
| 2026-04-09 22:38 | 53.97009 | -8.30385 | 6249 ft | 207 kts | 261° |
| 2026-04-09 22:38 | 53.96701 | -8.32724 | 6136 ft | 193 kts | 262° |
| 2026-04-09 22:38 | 53.96440 | -8.34885 | 5992 ft | 180 kts | 263° |
| 2026-04-09 22:38 | 53.96211 | -8.36921 | 5840 ft | 167 kts | 264° |
| 2026-04-09 22:39 | 53.96004 | -8.38806 | 5695 ft | 157 kts | 264° |
| 2026-04-09 22:39 | 53.95810 | -8.40582 | 5497 ft | 151 kts | 264° |
| 2026-04-09 22:39 | 53.95613 | -8.42359 | 5315 ft | 151 kts | 264° |
| 2026-04-09 22:39 | 53.95415 | -8.44117 | 5116 ft | 152 kts | 264° |
| 2026-04-09 22:40 | 53.95213 | -8.45879 | 4912 ft | 152 kts | 264° |
| 2026-04-09 22:40 | 53.95010 | -8.47646 | 4702 ft | 152 kts | 264° |
| 2026-04-09 22:40 | 53.94806 | -8.49414 | 4493 ft | 152 kts | 263° |
| 2026-04-09 22:40 | 53.94603 | -8.51178 | 4285 ft | 152 kts | 263° |
| 2026-04-09 22:41 | 53.94399 | -8.52944 | 4077 ft | 151 kts | 264° |
| 2026-04-09 22:41 | 53.94198 | -8.54692 | 3873 ft | 151 kts | 263° |
| 2026-04-09 22:41 | 53.93994 | -8.56461 | 3659 ft | 151 kts | 263° |
| 2026-04-09 22:41 | 53.93791 | -8.58211 | 3448 ft | 150 kts | 263° |
| 2026-04-09 22:42 | 53.93589 | -8.59955 | 3232 ft | 151 kts | 264° |
| 2026-04-09 22:42 | 53.93388 | -8.61687 | 3027 ft | 150 kts | 263° |
| 2026-04-09 22:42 | 53.93182 | -8.63462 | 2809 ft | 150 kts | 263° |
| 2026-04-09 22:42 | 53.92980 | -8.65198 | 2589 ft | 148 kts | 263° |
| 2026-04-09 22:43 | 53.92783 | -8.66882 | 2392 ft | 139 kts | 263° |
| 2026-04-09 22:43 | 53.92601 | -8.68431 | 2186 ft | 130 kts | 263° |
| 2026-04-09 22:43 | 53.92424 | -8.69930 | 1970 ft | 130 kts | 264° |
| 2026-04-09 22:43 | 53.92256 | -8.71436 | 1829 ft | 130 kts | 263° |
| 2026-04-09 22:44 | 53.92077 | -8.72946 | 1641 ft | 133 kts | 262° |
| 2026-04-09 22:44 | 53.91891 | -8.74510 | 1450 ft | 136 kts | 262° |
| 2026-04-09 22:44 | 53.91705 | -8.76109 | 1254 ft | 138 kts | 261° |
| 2026-04-09 22:44 | 53.91505 | -8.77727 | 1050 ft | 139 kts | 261° |
| 2026-04-09 22:45 | 53.91324 | -8.79312 | 828 ft | 137 kts | 260° |
| 2026-04-09 22:45 | 53.91145 | -8.80864 | 685 ft | 126 kts | 259° |
| 2026-04-09 22:45 | 53.91020 | -8.81965 | 653 ft | 62 kts | 259° |
| 2026-04-09 22:45 | 53.90978 | -8.82316 | 634 ft | 7 kts | 258° |
| 2026-04-09 22:46 | 53.90965 | -8.82408 | 631 ft | 1 kts | 257° |
| 2026-04-09 22:46 | 53.90961 | -8.82449 | 629 ft | 6 kts | 269° |
| 2026-04-09 22:46 | 53.90993 | -8.82508 | 626 ft | 8 kts | 337° |
| 2026-04-09 22:46 | 53.91051 | -8.82530 | 626 ft | 8 kts | 348° |
| 2026-04-09 22:47 | 53.91112 | -8.82552 | 625 ft | 9 kts | 347° |
| 2026-04-09 22:47 | 53.91155 | -8.82592 | 623 ft | 8 kts | 302° |
| 2026-04-09 22:47 | 53.91204 | -8.82638 | 621 ft | 8 kts | 355° |
| 2026-04-09 22:47 | 53.91221 | -8.82608 | 622 ft | 0 kts | 82° |
| 2026-04-09 22:48 | 53.91221 | -8.82606 | 622 ft | 0 kts | 84° |